createdAt,value
2018-12-05T00:00:16.024Z,3.10
2018-12-05T00:01:16.003Z,2.90
2018-12-05T00:02:15.995Z,3.20
2018-12-05T00:03:15.994Z,3.20
2018-12-05T00:04:15.989Z,3.20
2018-12-05T00:05:15.986Z,2.80
2018-12-05T00:06:15.949Z,2.90
2018-12-05T00:07:15.954Z,2.70
2018-12-05T00:08:15.934Z,2.80
2018-12-05T00:09:15.940Z,3.20
2018-12-05T00:10:15.917Z,2.80
2018-12-05T00:11:15.901Z,3.00
2018-12-05T00:12:15.889Z,3.20
2018-12-05T00:13:15.880Z,3.20
2018-12-05T00:14:15.887Z,2.90
2018-12-05T00:15:15.865Z,2.90
2018-12-05T00:16:15.842Z,2.70
2018-12-05T00:17:15.841Z,3.00
2018-12-05T00:18:15.831Z,3.50
2018-12-05T00:19:15.830Z,3.10
2018-12-05T00:20:15.813Z,2.60
2018-12-05T00:21:15.791Z,3.60
2018-12-05T00:22:15.774Z,3.00
2018-12-05T00:23:15.766Z,3.60
2018-12-05T00:24:15.776Z,2.90
2018-12-05T00:25:15.751Z,3.00
2018-12-05T00:26:15.765Z,2.80
2018-12-05T00:27:15.730Z,2.70
2018-12-05T00:28:15.723Z,3.00
2018-12-05T00:29:15.723Z,2.90
2018-12-05T00:30:15.696Z,3.20
2018-12-05T00:31:15.681Z,3.30
2018-12-05T00:32:15.675Z,3.20
2018-12-05T00:33:15.670Z,2.80
2018-12-05T00:34:15.670Z,2.90
2018-12-05T00:35:15.652Z,2.70
2018-12-05T00:36:15.627Z,2.90
2018-12-05T00:37:15.618Z,3.00
2018-12-05T00:38:15.606Z,3.00
2018-12-05T00:39:15.614Z,3.10
2018-12-05T00:40:15.638Z,2.90
2018-12-05T00:41:15.578Z,2.80
2018-12-05T00:42:15.570Z,3.10
2018-12-05T00:43:15.595Z,2.80
2018-12-05T00:44:15.558Z,3.70
2018-12-05T00:45:15.532Z,3.50
2018-12-05T00:46:15.521Z,3.70
2018-12-05T00:47:15.506Z,3.90
2018-12-05T00:48:15.500Z,3.60
2018-12-05T00:49:15.502Z,3.90
2018-12-05T00:50:15.482Z,3.40
2018-12-05T00:51:15.461Z,3.40
2018-12-05T00:52:15.451Z,4.00
2018-12-05T00:53:15.444Z,3.50
2018-12-05T00:54:15.447Z,3.20
2018-12-05T00:55:15.425Z,3.50
2018-12-05T00:56:15.415Z,3.50
2018-12-05T00:57:15.397Z,3.10
2018-12-05T00:58:15.417Z,3.10
2018-12-05T00:59:15.399Z,3.00
2018-12-05T01:00:15.359Z,3.30
2018-12-05T01:01:15.346Z,3.20
2018-12-05T01:02:15.349Z,3.30
2018-12-05T01:03:15.333Z,3.10
2018-12-05T01:04:15.325Z,2.80
2018-12-05T01:05:15.330Z,2.90
2018-12-05T01:06:15.302Z,3.70
2018-12-05T01:07:15.297Z,3.20
2018-12-05T01:08:15.271Z,3.20
2018-12-05T01:09:15.261Z,2.90
2018-12-05T01:10:15.332Z,3.00
2018-12-05T01:11:15.251Z,3.20
2018-12-05T01:12:15.233Z,3.40
2018-12-05T01:13:15.222Z,3.10
2018-12-05T01:14:15.213Z,3.10
2018-12-05T01:15:15.223Z,3.20
2018-12-05T01:16:15.193Z,3.40
2018-12-05T01:17:15.172Z,3.30
2018-12-05T01:18:15.186Z,3.30
2018-12-05T01:19:15.160Z,3.20
2018-12-05T01:20:15.160Z,3.20
2018-12-05T01:21:15.137Z,2.70
2018-12-05T01:22:15.139Z,3.10
2018-12-05T01:23:15.114Z,3.50
2018-12-05T01:24:15.120Z,3.20
2018-12-05T01:25:15.100Z,3.20
2018-12-05T01:26:15.074Z,3.00
2018-12-05T01:27:15.073Z,3.20
2018-12-05T01:28:15.072Z,3.20
2018-12-05T01:29:15.052Z,3.40
2018-12-05T01:30:15.068Z,3.50
2018-12-05T01:31:15.028Z,3.40
2018-12-05T01:32:15.015Z,3.80
2018-12-05T01:33:16.360Z,3.50
2018-12-05T01:34:14.993Z,3.60
2018-12-05T01:35:14.998Z,4.00
2018-12-05T01:36:14.973Z,3.40
2018-12-05T01:37:14.970Z,3.80
2018-12-05T01:38:14.948Z,3.20
2018-12-05T01:39:14.944Z,3.50
2018-12-05T01:40:15.006Z,3.70
2018-12-05T01:41:14.915Z,3.40
2018-12-05T01:42:14.902Z,3.40
2018-12-05T01:43:14.894Z,3.40
2018-12-05T01:44:14.884Z,3.20
2018-12-05T01:45:14.870Z,3.10
2018-12-05T01:46:14.881Z,3.10
2018-12-05T01:47:14.854Z,2.80
2018-12-05T01:48:14.836Z,3.10
2018-12-05T01:49:14.830Z,3.00
2018-12-05T01:50:14.821Z,3.10
2018-12-05T01:51:14.871Z,2.90
2018-12-05T01:52:14.796Z,3.40
2018-12-05T01:53:14.780Z,3.00
2018-12-05T01:54:14.792Z,3.00
2018-12-05T01:55:14.764Z,3.10
2018-12-05T01:56:14.754Z,3.10
2018-12-05T01:57:14.738Z,3.00
2018-12-05T01:58:14.728Z,3.30
2018-12-05T01:59:14.717Z,2.80
2018-12-05T02:00:14.701Z,2.70
2018-12-05T02:01:14.714Z,3.00
2018-12-05T02:02:15.646Z,3.30
2018-12-05T02:03:14.677Z,2.70
2018-12-05T02:04:14.664Z,3.10
2018-12-05T02:05:14.690Z,3.10
2018-12-05T02:06:15.218Z,2.90
2018-12-05T02:07:14.634Z,3.10
2018-12-05T02:08:14.624Z,3.00
2018-12-05T02:09:14.619Z,3.00
2018-12-05T02:10:14.606Z,3.20
2018-12-05T02:11:14.605Z,3.20
2018-12-05T02:12:14.575Z,3.30
2018-12-05T02:13:14.569Z,3.10
2018-12-05T02:14:14.564Z,3.20
2018-12-05T02:15:14.538Z,3.10
2018-12-05T02:16:14.564Z,3.00
2018-12-05T02:17:14.520Z,3.10
2018-12-05T02:18:14.513Z,3.20
2018-12-05T02:19:14.509Z,3.80
2018-12-05T02:20:14.490Z,3.10
2018-12-05T02:21:14.502Z,3.00
2018-12-05T02:22:14.462Z,3.20
2018-12-05T02:23:14.454Z,3.20
2018-12-05T02:24:14.440Z,3.10
2018-12-05T02:25:14.437Z,3.00
2018-12-05T02:26:14.429Z,3.40
2018-12-05T02:27:14.436Z,3.70
2018-12-05T02:28:14.398Z,3.10
2018-12-05T02:29:14.394Z,3.30
2018-12-05T02:30:14.402Z,3.80
2018-12-05T02:31:14.375Z,3.40
2018-12-05T02:32:14.379Z,3.70
2018-12-05T02:33:14.357Z,4.00
2018-12-05T02:34:14.375Z,3.70
2018-12-05T02:35:14.332Z,3.40
2018-12-05T02:36:14.314Z,3.10
2018-12-05T02:37:14.323Z,3.00
2018-12-05T02:38:14.301Z,3.40
2018-12-05T02:39:14.287Z,3.60
2018-12-05T02:40:14.270Z,3.40
2018-12-05T02:41:14.261Z,3.40
2018-12-05T02:42:14.266Z,2.90
2018-12-05T02:43:14.243Z,3.50
2018-12-05T02:44:14.223Z,3.10
2018-12-05T02:45:14.212Z,2.80
2018-12-05T02:46:14.205Z,3.10
2018-12-05T02:47:14.211Z,3.20
2018-12-05T02:48:14.187Z,3.00
2018-12-05T02:49:14.186Z,3.30
2018-12-05T02:50:14.170Z,3.30
2018-12-05T02:51:14.152Z,3.10
2018-12-05T02:52:14.160Z,3.00
2018-12-05T02:53:14.132Z,2.80
2018-12-05T02:54:14.117Z,3.10
2018-12-05T02:55:14.103Z,2.90
2018-12-05T02:56:14.102Z,2.80
2018-12-05T02:57:14.113Z,2.70
2018-12-05T02:58:14.069Z,3.30
2018-12-05T02:59:14.060Z,3.10
2018-12-05T03:00:14.066Z,3.00
2018-12-05T03:01:14.039Z,3.40
2018-12-05T03:02:14.046Z,2.80
2018-12-05T03:03:14.024Z,2.70
2018-12-05T03:04:14.016Z,3.20
2018-12-05T03:05:14.003Z,2.90
2018-12-05T03:06:13.986Z,3.80
2018-12-05T03:07:14.026Z,3.50
2018-12-05T03:08:13.978Z,3.00
2018-12-05T03:09:13.960Z,3.00
2018-12-05T03:10:13.942Z,3.00
2018-12-05T03:11:13.937Z,3.30
2018-12-05T03:12:13.931Z,2.80
2018-12-05T03:13:13.927Z,3.00
2018-12-05T03:14:13.895Z,2.80
2018-12-05T03:15:13.892Z,3.10
2018-12-05T03:16:13.878Z,3.30
2018-12-05T03:17:13.866Z,3.50
2018-12-05T03:18:14.226Z,3.40
2018-12-05T03:19:13.851Z,3.30
2018-12-05T03:20:13.841Z,3.50
2018-12-05T03:21:13.817Z,4.20
2018-12-05T03:22:13.808Z,4.10
2018-12-05T03:23:13.822Z,3.60
2018-12-05T03:24:13.795Z,3.90
2018-12-05T03:25:13.793Z,3.50
2018-12-05T03:26:13.767Z,3.80
2018-12-05T03:27:13.756Z,3.30
2018-12-05T03:28:13.763Z,3.60
2018-12-05T03:29:13.730Z,4.00
2018-12-05T03:30:13.732Z,3.60
2018-12-05T03:31:13.725Z,3.90
2018-12-05T03:32:13.700Z,3.50
2018-12-05T03:33:13.705Z,3.60
2018-12-05T03:34:13.691Z,4.00
2018-12-05T03:35:13.675Z,3.60
2018-12-05T03:36:13.656Z,3.30
2018-12-05T03:37:13.665Z,3.50
2018-12-05T03:38:14.173Z,3.80
2018-12-05T03:39:13.633Z,3.30
2018-12-05T03:40:13.615Z,3.60
2018-12-05T03:41:13.609Z,3.10
2018-12-05T03:42:13.583Z,3.70
2018-12-05T03:43:13.601Z,3.40
2018-12-05T03:44:13.582Z,3.30
2018-12-05T03:45:13.577Z,3.40
2018-12-05T03:46:13.552Z,3.40
2018-12-05T03:47:13.550Z,3.60
2018-12-05T03:48:13.565Z,3.40
2018-12-05T03:49:13.546Z,3.00
2018-12-05T03:50:13.515Z,3.10
2018-12-05T03:51:13.496Z,3.40
2018-12-05T03:52:13.483Z,3.40
2018-12-05T03:53:13.557Z,3.80
2018-12-05T03:54:13.466Z,4.00
2018-12-05T03:55:13.453Z,3.10
2018-12-05T03:56:13.447Z,3.20
2018-12-05T03:57:13.424Z,3.40
2018-12-05T03:58:13.419Z,3.50
2018-12-05T03:59:13.439Z,2.80
2018-12-05T04:00:13.400Z,3.10
2018-12-05T04:01:13.389Z,3.90
2018-12-05T04:02:13.383Z,3.50
2018-12-05T04:03:13.403Z,3.40
2018-12-05T04:04:13.376Z,3.20
2018-12-05T04:05:13.353Z,3.30
2018-12-05T04:06:13.390Z,3.80
2018-12-05T04:07:13.355Z,3.70
2018-12-05T04:08:13.312Z,3.40
2018-12-05T04:09:13.332Z,3.30
2018-12-05T04:10:13.287Z,3.40
2018-12-05T04:11:13.309Z,3.60
2018-12-05T04:12:13.278Z,3.70
2018-12-05T04:13:13.258Z,3.50
2018-12-05T04:14:13.276Z,3.00
2018-12-05T04:15:13.235Z,3.90
2018-12-05T04:16:13.222Z,3.10
2018-12-05T04:17:13.204Z,3.50
2018-12-05T04:18:13.217Z,3.40
2018-12-05T04:19:13.213Z,3.60
2018-12-05T04:20:13.181Z,3.90
2018-12-05T04:21:13.163Z,3.50
2018-12-05T04:22:13.155Z,3.80
2018-12-05T04:23:13.162Z,3.70
2018-12-05T04:24:13.150Z,3.60
2018-12-05T04:25:13.129Z,3.30
2018-12-05T04:26:13.126Z,4.10
2018-12-05T04:27:13.106Z,3.60
2018-12-05T04:28:13.092Z,4.00
2018-12-05T04:29:13.116Z,3.30
2018-12-05T04:30:13.077Z,3.70
2018-12-05T04:31:13.061Z,4.10
2018-12-05T04:32:13.049Z,3.80
2018-12-05T04:33:13.046Z,3.60
2018-12-05T04:34:13.024Z,4.00
2018-12-05T04:35:13.039Z,4.00
2018-12-05T04:36:13.011Z,4.10
2018-12-05T04:37:13.000Z,3.40
2018-12-05T04:38:12.978Z,3.90
2018-12-05T04:39:12.980Z,3.80
2018-12-05T04:40:12.983Z,4.30
2018-12-05T04:41:12.944Z,4.20
2018-12-05T04:42:12.948Z,3.90
2018-12-05T04:43:12.923Z,3.90
2018-12-05T04:44:12.914Z,3.90
2018-12-05T04:45:12.915Z,3.70
2018-12-05T04:46:12.892Z,3.50
2018-12-05T04:47:12.884Z,3.90
2018-12-05T04:48:12.961Z,4.10
2018-12-05T04:49:12.916Z,3.80
2018-12-05T04:50:12.866Z,4.60
2018-12-05T04:51:12.852Z,4.30
2018-12-05T04:52:12.834Z,4.30
2018-12-05T04:53:12.864Z,4.60
2018-12-05T04:54:12.802Z,4.10
2018-12-05T04:55:12.807Z,4.00
2018-12-05T04:56:12.810Z,4.10
2018-12-05T04:57:12.778Z,4.50
2018-12-05T04:58:12.762Z,4.50
2018-12-05T04:59:12.747Z,3.90
2018-12-05T05:00:12.772Z,4.90
2018-12-05T05:01:12.727Z,4.00
2018-12-05T05:02:12.720Z,4.50
2018-12-05T05:03:12.713Z,4.50
2018-12-05T05:04:12.749Z,4.40
2018-12-05T05:05:12.696Z,4.30
2018-12-05T05:06:12.681Z,5.10
2018-12-05T05:07:12.672Z,4.70
2018-12-05T05:08:12.651Z,4.00
2018-12-05T05:09:12.645Z,4.40
2018-12-05T05:10:12.667Z,4.30
2018-12-05T05:11:12.616Z,4.60
2018-12-05T05:12:12.612Z,4.90
2018-12-05T05:13:12.713Z,5.30
2018-12-05T05:14:12.598Z,5.60
2018-12-05T05:15:12.579Z,5.30
2018-12-05T05:16:12.567Z,5.10
2018-12-05T05:17:12.703Z,5.10
2018-12-05T05:18:12.545Z,5.10
2018-12-05T05:19:12.549Z,5.40
2018-12-05T05:20:12.519Z,4.80
2018-12-05T05:21:12.526Z,5.80
2018-12-05T05:22:12.494Z,4.70
2018-12-05T05:23:12.508Z,4.50
2018-12-05T05:24:12.477Z,4.90
2018-12-05T05:25:12.459Z,5.10
2018-12-05T05:26:12.566Z,5.60
2018-12-05T05:27:12.443Z,5.50
2018-12-05T05:28:12.433Z,5.50
2018-12-05T05:29:12.439Z,5.90
2018-12-05T05:30:12.411Z,6.30
2018-12-05T05:31:12.420Z,5.80
2018-12-05T05:32:12.399Z,6.50
2018-12-05T05:33:12.374Z,5.90
2018-12-05T05:34:12.361Z,5.90
2018-12-05T05:35:12.375Z,6.90
2018-12-05T05:36:12.364Z,7.50
2018-12-05T05:37:12.333Z,7.90
2018-12-05T05:38:12.330Z,8.90
2018-12-05T05:39:12.318Z,8.10
2018-12-05T05:40:12.302Z,7.60
2018-12-05T05:41:12.306Z,7.80
2018-12-05T05:42:12.283Z,7.30
2018-12-05T05:43:12.354Z,7.30
2018-12-05T05:44:12.267Z,7.20
2018-12-05T05:45:12.257Z,6.90
2018-12-05T05:46:12.277Z,6.90
2018-12-05T05:47:12.233Z,7.30
2018-12-05T05:48:12.223Z,7.90
2018-12-05T05:49:12.203Z,7.40
2018-12-05T05:50:12.187Z,7.90
2018-12-05T05:51:12.228Z,7.60
2018-12-05T05:52:12.173Z,8.20
2018-12-05T05:53:12.170Z,8.90
2018-12-05T05:54:12.158Z,9.00
2018-12-05T05:55:12.148Z,8.80
2018-12-05T05:56:12.127Z,9.00
2018-12-05T05:57:12.136Z,9.50
2018-12-05T05:58:12.145Z,9.30
2018-12-05T05:59:12.094Z,10.10
2018-12-05T06:00:12.097Z,9.00
2018-12-05T06:01:12.071Z,8.80
2018-12-05T06:02:12.077Z,8.10
2018-12-05T06:03:12.051Z,7.50
2018-12-05T06:04:12.055Z,7.50
2018-12-05T06:05:12.045Z,7.30
2018-12-05T06:06:12.021Z,7.20
2018-12-05T06:07:12.027Z,7.80
2018-12-05T06:08:12.017Z,6.90
2018-12-05T06:09:12.007Z,6.30
2018-12-05T06:10:11.984Z,6.20
2018-12-05T06:11:12.039Z,6.30
2018-12-05T06:12:11.977Z,6.50
2018-12-05T06:13:11.951Z,7.00
2018-12-05T06:14:11.934Z,6.70
2018-12-05T06:15:11.923Z,6.90
2018-12-05T06:16:11.909Z,6.50
2018-12-05T06:17:11.915Z,6.50
2018-12-05T06:18:11.898Z,6.60
2018-12-05T06:19:11.878Z,6.50
2018-12-05T06:20:11.872Z,6.50
2018-12-05T06:21:11.864Z,6.10
2018-12-05T06:22:11.853Z,6.80
2018-12-05T06:23:11.836Z,6.50
2018-12-05T06:24:11.820Z,6.60
2018-12-05T06:25:12.072Z,6.60
2018-12-05T06:26:11.802Z,6.20
2018-12-05T06:27:11.803Z,6.50
2018-12-05T06:28:11.777Z,6.70
2018-12-05T06:29:11.774Z,6.70
2018-12-05T06:30:11.763Z,6.30
2018-12-05T06:31:11.750Z,5.70
2018-12-05T06:32:11.758Z,6.30
2018-12-05T06:33:11.747Z,6.20
2018-12-05T06:34:11.738Z,6.30
2018-12-05T06:35:11.709Z,6.50
2018-12-05T06:36:11.702Z,6.00
2018-12-05T06:37:11.707Z,6.60
2018-12-05T06:38:11.663Z,7.20
2018-12-05T06:39:11.663Z,7.00
2018-12-05T06:40:11.642Z,6.70
2018-12-05T06:41:11.635Z,6.50
2018-12-05T06:42:11.632Z,7.10
2018-12-05T06:43:11.639Z,7.30
2018-12-05T06:44:11.604Z,7.10
2018-12-05T06:45:11.592Z,7.00
2018-12-05T06:46:11.606Z,6.80
2018-12-05T06:47:11.580Z,7.40
2018-12-05T06:48:11.596Z,7.50
2018-12-05T06:49:11.592Z,8.20
2018-12-05T06:50:11.541Z,7.60
2018-12-05T06:51:11.545Z,7.50
2018-12-05T06:52:11.538Z,8.40
2018-12-05T06:53:11.515Z,9.10
2018-12-05T06:54:11.492Z,8.70
2018-12-05T06:55:11.495Z,9.80
2018-12-05T06:56:11.474Z,9.10
2018-12-05T06:57:11.468Z,9.80
2018-12-05T06:58:11.498Z,9.80
2018-12-05T06:59:11.447Z,9.20
2018-12-05T07:00:11.432Z,9.80
2018-12-05T07:01:11.422Z,10.80
2018-12-05T07:02:11.401Z,9.50
2018-12-05T07:03:11.407Z,9.70
2018-12-05T07:04:11.383Z,10.40
2018-12-05T07:05:11.382Z,10.80
2018-12-05T07:06:11.369Z,10.60
2018-12-05T07:07:11.380Z,9.00
2018-12-05T07:08:11.361Z,8.70
2018-12-05T07:09:11.335Z,8.90
2018-12-05T07:10:11.414Z,8.80
2018-12-05T07:11:11.341Z,8.70
2018-12-05T07:12:11.301Z,9.10
2018-12-05T07:13:11.313Z,9.00
2018-12-05T07:14:11.298Z,8.30
2018-12-05T07:15:11.268Z,8.10
2018-12-05T07:16:11.257Z,8.80
2018-12-05T07:17:11.260Z,8.60
2018-12-05T07:18:11.249Z,9.80
2018-12-05T07:19:11.239Z,9.80
2018-12-05T07:20:11.235Z,12.00
2018-12-05T07:21:11.203Z,12.60
2018-12-05T07:22:11.193Z,14.10
2018-12-05T07:23:11.213Z,12.70
2018-12-05T07:24:11.180Z,12.10
2018-12-05T07:25:11.155Z,12.30
2018-12-05T07:26:11.154Z,13.10
2018-12-05T07:27:11.151Z,12.60
2018-12-05T07:28:11.125Z,11.30
2018-12-05T07:29:11.121Z,12.50
2018-12-05T07:30:11.105Z,11.60
2018-12-05T07:31:11.084Z,11.70
2018-12-05T07:32:11.079Z,11.90
2018-12-05T07:33:11.065Z,11.70
2018-12-05T07:34:11.069Z,11.70
2018-12-05T07:35:11.058Z,10.60
2018-12-05T07:36:11.035Z,9.80
2018-12-05T07:37:11.021Z,10.10
2018-12-05T07:38:11.025Z,9.50
2018-12-05T07:39:11.025Z,9.50
2018-12-05T07:40:11.002Z,9.50
2018-12-05T07:41:10.976Z,9.30
2018-12-05T07:42:10.975Z,9.00
2018-12-05T07:43:10.956Z,10.30
2018-12-05T07:44:10.970Z,9.30
2018-12-05T07:45:10.929Z,8.90
2018-12-05T07:46:10.925Z,10.00
2018-12-05T07:47:10.924Z,10.10
2018-12-05T07:48:10.916Z,10.10
2018-12-05T07:49:10.909Z,9.60
2018-12-05T07:50:10.900Z,10.30
2018-12-05T07:51:10.873Z,9.30
2018-12-05T07:52:10.867Z,9.30
2018-12-05T07:53:10.851Z,9.50
2018-12-05T07:54:10.857Z,10.30
2018-12-05T07:55:10.830Z,9.60
2018-12-05T07:56:10.829Z,9.70
2018-12-05T07:57:10.835Z,10.10
2018-12-05T07:58:10.795Z,10.30
2018-12-05T07:59:10.805Z,10.70
2018-12-05T08:00:10.778Z,11.00
2018-12-05T08:01:10.764Z,11.20
2018-12-05T08:02:10.748Z,11.70
2018-12-05T08:03:10.739Z,11.00
2018-12-05T08:04:10.754Z,11.20
2018-12-05T08:05:10.718Z,11.30
2018-12-05T08:06:10.718Z,11.30
2018-12-05T08:07:10.728Z,10.50
2018-12-05T08:08:10.695Z,11.50
2018-12-05T08:09:10.700Z,11.40
2018-12-05T08:10:10.673Z,11.70
2018-12-05T08:11:10.656Z,11.90
2018-12-05T08:12:10.640Z,10.80
2018-12-05T08:13:10.632Z,11.00
2018-12-05T08:14:10.635Z,11.70
2018-12-05T08:15:10.602Z,10.90
2018-12-05T08:16:10.597Z,12.60
2018-12-05T08:17:10.578Z,11.30
2018-12-05T08:18:10.597Z,11.40
2018-12-05T08:19:10.602Z,11.60
2018-12-05T08:20:10.552Z,10.70
2018-12-05T08:21:10.554Z,10.80
2018-12-05T08:22:10.527Z,10.80
2018-12-05T08:23:10.521Z,10.70
2018-12-05T08:24:10.507Z,10.30
2018-12-05T08:25:10.517Z,9.50
2018-12-05T08:26:10.484Z,10.00
2018-12-05T08:27:10.475Z,9.40
2018-12-05T08:28:10.472Z,10.00
2018-12-05T08:29:10.458Z,10.20
2018-12-05T08:30:10.550Z,9.50
2018-12-05T08:31:10.440Z,8.90
2018-12-05T08:32:10.417Z,10.10
2018-12-05T08:33:10.407Z,10.00
2018-12-05T08:34:10.396Z,10.10
2018-12-05T08:35:10.400Z,10.00
2018-12-05T08:36:10.376Z,9.50
2018-12-05T08:37:10.381Z,10.40
2018-12-05T08:38:11.226Z,9.60
2018-12-05T08:39:10.344Z,9.40
2018-12-05T08:40:10.352Z,8.80
2018-12-05T08:41:10.326Z,9.70
2018-12-05T08:42:10.310Z,10.60
2018-12-05T08:43:10.310Z,9.70
2018-12-05T08:44:10.290Z,9.60
2018-12-05T08:45:10.300Z,9.40
2018-12-05T08:46:10.277Z,9.20
2018-12-05T08:47:10.272Z,10.30
2018-12-05T08:48:10.244Z,10.30
2018-12-05T08:49:10.242Z,10.50
2018-12-05T08:50:10.238Z,10.20
2018-12-05T08:51:10.211Z,10.40
2018-12-05T08:52:10.200Z,10.80
2018-12-05T08:53:10.194Z,9.60
2018-12-05T08:54:10.174Z,8.80
2018-12-05T08:55:10.189Z,9.10
2018-12-05T08:56:10.174Z,9.30
2018-12-05T08:57:10.146Z,9.10
2018-12-05T08:58:10.132Z,9.40
2018-12-05T08:59:10.130Z,8.90
2018-12-05T09:00:10.139Z,8.50
2018-12-05T09:01:10.099Z,9.10
2018-12-05T09:02:10.100Z,9.10
2018-12-05T09:03:10.077Z,7.90
2018-12-05T09:04:10.072Z,7.70
2018-12-05T09:05:10.082Z,7.80
2018-12-05T09:06:10.056Z,8.00
2018-12-05T09:07:10.029Z,7.90
2018-12-05T09:08:10.032Z,8.00
2018-12-05T09:09:10.008Z,7.80
2018-12-05T09:10:10.025Z,8.10
2018-12-05T09:11:09.991Z,7.30
2018-12-05T09:12:09.988Z,7.50
2018-12-05T09:13:09.977Z,6.90
2018-12-05T09:14:09.968Z,7.40
2018-12-05T09:15:09.974Z,7.60
2018-12-05T09:16:09.945Z,7.20
2018-12-05T09:17:09.921Z,7.80
2018-12-05T09:18:09.936Z,7.70
2018-12-05T09:19:09.903Z,8.00
2018-12-05T09:20:09.907Z,7.80
2018-12-05T09:21:09.877Z,7.80
2018-12-05T09:22:09.872Z,8.50
2018-12-05T09:23:09.869Z,7.60
2018-12-05T09:24:09.886Z,8.20
2018-12-05T09:25:09.851Z,8.40
2018-12-05T09:26:09.836Z,8.00
2018-12-05T09:27:09.823Z,8.10
2018-12-05T09:28:09.887Z,8.00
2018-12-05T09:29:09.797Z,8.20
2018-12-05T09:30:09.802Z,8.00
2018-12-05T09:31:09.782Z,8.40
2018-12-05T09:32:09.759Z,8.20
2018-12-05T09:33:09.753Z,7.90
2018-12-05T09:34:09.743Z,8.40
2018-12-05T09:35:09.746Z,8.50
2018-12-05T09:36:09.717Z,7.80
2018-12-05T09:37:09.711Z,8.10
2018-12-05T09:38:09.710Z,7.70
2018-12-05T09:39:09.683Z,8.20
2018-12-05T09:40:09.709Z,7.80
2018-12-05T09:41:09.675Z,7.90
2018-12-05T09:42:09.663Z,7.50
2018-12-05T09:43:09.653Z,7.00
2018-12-05T09:44:09.637Z,7.40
2018-12-05T09:45:09.620Z,7.10
2018-12-05T09:46:09.625Z,7.50
2018-12-05T09:47:15.739Z,7.70
2018-12-05T09:48:10.590Z,7.20
2018-12-05T09:49:09.583Z,7.80
2018-12-05T09:50:09.579Z,8.10
2018-12-05T09:51:09.579Z,8.00
2018-12-05T09:52:09.554Z,8.60
2018-12-05T09:53:09.546Z,10.00
2018-12-05T09:54:09.518Z,9.50
2018-12-05T09:55:09.517Z,8.50
2018-12-05T09:56:09.535Z,9.00
2018-12-05T09:57:09.494Z,8.50
2018-12-05T09:58:09.484Z,8.50
2018-12-05T09:59:09.468Z,8.30
2018-12-05T10:00:09.453Z,8.50
2018-12-05T10:01:09.475Z,7.80
2018-12-05T10:02:09.455Z,8.20
2018-12-05T10:03:09.424Z,7.80
2018-12-05T10:04:09.422Z,8.60
2018-12-05T10:05:09.422Z,8.10
2018-12-05T10:06:09.412Z,8.20
2018-12-05T10:07:09.383Z,8.10
2018-12-05T10:08:09.366Z,7.80
2018-12-05T10:09:09.371Z,7.80
2018-12-05T10:10:09.349Z,8.10
2018-12-05T10:11:09.358Z,7.60
2018-12-05T10:12:09.388Z,7.40
2018-12-05T10:13:09.310Z,7.50
2018-12-05T10:14:09.302Z,7.10
2018-12-05T10:15:09.297Z,7.50
2018-12-05T10:16:09.298Z,7.10
2018-12-05T10:17:09.284Z,7.80
2018-12-05T10:18:09.263Z,7.30
2018-12-05T10:19:09.254Z,6.70
2018-12-05T10:20:09.237Z,7.50
2018-12-05T10:21:09.241Z,7.10
2018-12-05T10:22:09.237Z,7.00
2018-12-05T10:23:09.214Z,7.50
2018-12-05T10:24:09.191Z,6.90
2018-12-05T10:25:09.221Z,7.50
2018-12-05T10:26:09.209Z,6.70
2018-12-05T10:27:09.166Z,6.20
2018-12-05T10:28:09.145Z,6.40
2018-12-05T10:29:09.141Z,6.50
2018-12-05T10:30:09.139Z,5.80
2018-12-05T10:31:09.129Z,6.30
2018-12-05T10:32:09.137Z,6.70
2018-12-05T10:33:09.097Z,6.70
2018-12-05T10:34:09.085Z,6.50
2018-12-05T10:35:09.099Z,6.90
2018-12-05T10:36:09.064Z,6.50
2018-12-05T10:37:09.074Z,6.60
2018-12-05T10:38:09.044Z,7.30
2018-12-05T10:39:09.030Z,7.00
2018-12-05T10:40:09.021Z,8.50
2018-12-05T10:41:09.005Z,8.20
2018-12-05T10:42:09.007Z,8.30
2018-12-05T10:43:08.985Z,8.00
2018-12-05T10:44:08.981Z,7.00
2018-12-05T10:45:08.971Z,7.00
2018-12-05T10:46:08.957Z,6.90
2018-12-05T10:47:08.964Z,7.40
2018-12-05T10:48:08.939Z,6.40
2018-12-05T10:49:08.918Z,5.80
2018-12-05T10:50:08.922Z,5.20
2018-12-05T10:51:08.891Z,4.70
2018-12-05T10:52:08.928Z,4.80
2018-12-05T10:53:08.881Z,5.40
2018-12-05T10:54:08.868Z,5.10
2018-12-05T10:55:08.851Z,5.70
2018-12-05T10:56:08.850Z,5.60
2018-12-05T10:57:08.845Z,5.20
2018-12-05T10:58:08.824Z,5.10
2018-12-05T10:59:08.808Z,5.60
2018-12-05T11:00:08.816Z,5.70
2018-12-05T11:01:08.786Z,5.80
2018-12-05T11:02:08.796Z,6.60
2018-12-05T11:03:08.798Z,6.20
2018-12-05T11:04:08.762Z,5.70
2018-12-05T11:05:08.742Z,6.10
2018-12-05T11:06:08.737Z,5.50
2018-12-05T11:07:08.730Z,6.10
2018-12-05T11:08:08.719Z,5.80
2018-12-05T11:09:08.696Z,6.40
2018-12-05T11:10:08.690Z,5.80
2018-12-05T11:11:08.678Z,6.10
2018-12-05T11:12:08.681Z,5.70
2018-12-05T11:13:08.660Z,5.60
2018-12-05T11:14:08.658Z,5.50
2018-12-05T11:15:08.636Z,5.20
2018-12-05T11:16:08.623Z,5.00
2018-12-05T11:17:08.641Z,4.80
2018-12-05T11:18:08.599Z,5.30
2018-12-05T11:19:08.591Z,5.40
2018-12-05T11:20:08.569Z,5.20
2018-12-05T11:21:08.586Z,5.10
2018-12-05T11:22:08.575Z,5.30
2018-12-05T11:23:08.556Z,4.90
2018-12-05T11:24:08.530Z,5.10
2018-12-05T11:25:08.517Z,5.20
2018-12-05T11:26:08.508Z,5.60
2018-12-05T11:27:08.494Z,4.90
2018-12-05T11:28:08.500Z,5.10
2018-12-05T11:29:08.475Z,5.10
2018-12-05T11:30:08.456Z,4.90
2018-12-05T11:31:08.461Z,4.80
2018-12-05T11:32:08.441Z,5.50
2018-12-05T11:33:08.450Z,5.40
2018-12-05T11:34:08.416Z,4.70
2018-12-05T11:35:08.407Z,5.00
2018-12-05T11:36:08.400Z,4.60
2018-12-05T11:37:08.404Z,4.10
2018-12-05T11:38:08.392Z,4.00
2018-12-05T11:39:08.357Z,4.00
2018-12-05T11:40:08.351Z,3.60
2018-12-05T11:41:08.331Z,3.60
2018-12-05T11:42:08.379Z,3.30
2018-12-05T11:43:08.372Z,3.30
2018-12-05T11:44:08.309Z,2.80
2018-12-05T11:45:08.325Z,3.30
2018-12-05T11:46:08.321Z,3.40
2018-12-05T11:47:08.270Z,3.10
2018-12-05T11:48:08.285Z,3.20
2018-12-05T11:49:08.259Z,3.40
2018-12-05T11:50:08.314Z,2.80
2018-12-05T11:51:08.270Z,3.20
2018-12-05T11:52:08.222Z,3.00
2018-12-05T11:53:08.231Z,3.20
2018-12-05T11:54:08.184Z,2.80
2018-12-05T11:55:08.196Z,2.90
2018-12-05T11:56:08.170Z,3.10
2018-12-05T11:57:08.166Z,3.20
2018-12-05T11:58:08.207Z,3.00
2018-12-05T11:59:08.169Z,3.40
2018-12-05T12:00:08.134Z,3.50
2018-12-05T12:01:08.111Z,3.60
2018-12-05T12:02:08.150Z,3.30
2018-12-05T12:03:08.108Z,3.60
2018-12-05T12:04:08.089Z,3.20
2018-12-05T12:05:08.064Z,3.50
2018-12-05T12:06:08.073Z,3.50
2018-12-05T12:07:08.049Z,3.30
2018-12-05T12:08:08.062Z,3.70
2018-12-05T12:09:08.033Z,3.50
2018-12-05T12:10:08.024Z,3.50
2018-12-05T12:11:09.363Z,3.90
2018-12-05T12:12:09.692Z,3.90
2018-12-05T12:13:08.006Z,3.80
2018-12-05T12:14:07.985Z,3.80
2018-12-05T12:15:07.966Z,3.50
2018-12-05T12:16:07.944Z,3.70
2018-12-05T12:17:07.936Z,4.00
2018-12-05T12:18:07.949Z,4.10
2018-12-05T12:19:07.917Z,3.80
2018-12-05T12:20:07.934Z,3.90
2018-12-05T12:21:07.887Z,3.40
2018-12-05T12:22:07.908Z,3.30
2018-12-05T12:23:07.874Z,3.30
2018-12-05T12:24:07.867Z,3.40
2018-12-05T12:25:07.852Z,3.30
2018-12-05T12:26:07.834Z,3.20
2018-12-05T12:27:07.824Z,3.70
2018-12-05T12:28:07.819Z,3.90
2018-12-05T12:29:07.815Z,3.90
2018-12-05T12:30:07.786Z,3.80
2018-12-05T12:31:07.774Z,3.80
2018-12-05T12:32:07.782Z,4.10
2018-12-05T12:33:07.762Z,3.90
2018-12-05T12:34:07.774Z,3.80
2018-12-05T12:35:07.746Z,4.60
2018-12-05T12:36:07.723Z,4.30
2018-12-05T12:37:07.710Z,4.20
2018-12-05T12:38:07.757Z,4.20
2018-12-05T12:39:07.708Z,4.70
2018-12-05T12:40:07.672Z,4.20
2018-12-05T12:41:07.668Z,4.30
2018-12-05T12:42:07.685Z,4.40
2018-12-05T12:43:07.649Z,4.40
2018-12-05T12:44:07.663Z,4.20
2018-12-05T12:45:07.623Z,3.80
2018-12-05T12:46:07.609Z,4.50
2018-12-05T12:47:07.615Z,4.00
2018-12-05T12:48:08.189Z,3.60
2018-12-05T12:49:07.595Z,3.60
2018-12-05T12:50:07.566Z,4.00
2018-12-05T12:51:07.555Z,4.30
2018-12-05T12:52:07.549Z,4.10
2018-12-05T12:53:07.543Z,4.00
2018-12-05T12:54:07.564Z,3.30
2018-12-05T12:55:07.514Z,3.90
2018-12-05T12:56:07.512Z,4.30
2018-12-05T12:57:07.485Z,3.60
2018-12-05T12:58:07.503Z,3.60
2018-12-05T12:59:07.480Z,4.00
2018-12-05T13:00:07.472Z,3.60
2018-12-05T13:01:07.448Z,3.90
2018-12-05T13:02:07.444Z,3.60
2018-12-05T13:03:07.415Z,3.10
2018-12-05T13:04:07.407Z,3.40
2018-12-05T13:05:07.410Z,2.80
2018-12-05T13:06:07.395Z,3.50
2018-12-05T13:07:07.389Z,3.10
2018-12-05T13:08:07.369Z,3.20
2018-12-05T13:09:07.349Z,3.50
2018-12-05T13:10:07.398Z,3.20
2018-12-05T13:11:07.355Z,3.30
2018-12-05T13:12:07.317Z,3.10
2018-12-05T13:13:08.260Z,3.10
2018-12-05T13:14:07.296Z,3.10
2018-12-05T13:15:07.306Z,3.00
2018-12-05T13:16:07.275Z,2.90